createdAt,value
2018-09-13T00:01:13.122Z,14.30
2018-09-13T00:03:45.684Z,14.30
2018-09-13T00:06:18.280Z,14.30
2018-09-13T00:08:50.831Z,14.30
2018-09-13T00:11:23.416Z,14.30
2018-09-13T00:13:55.903Z,14.30
2018-09-13T00:16:28.582Z,14.40
2018-09-13T00:19:01.256Z,14.40
2018-09-13T00:21:33.889Z,14.40
2018-09-13T00:24:06.444Z,14.40
2018-09-13T00:26:39.045Z,14.40
2018-09-13T00:29:11.549Z,14.40
2018-09-13T00:31:44.454Z,14.40
2018-09-13T00:34:17.228Z,14.40
2018-09-13T00:36:49.896Z,14.40
2018-09-13T00:39:22.450Z,14.40
2018-09-13T00:41:55.030Z,14.40
2018-09-13T00:44:27.567Z,14.40
2018-09-13T00:47:00.220Z,14.40
2018-09-13T00:49:32.800Z,14.30
2018-09-13T00:52:05.469Z,14.30
2018-09-13T00:54:37.989Z,14.20
2018-09-13T00:57:10.941Z,14.30
2018-09-13T00:59:43.469Z,14.20
2018-09-13T01:02:16.139Z,14.20
2018-09-13T01:04:48.703Z,14.20
2018-09-13T01:07:21.471Z,14.20
2018-09-13T01:09:54.997Z,14.20
2018-09-13T01:12:27.604Z,14.10
2018-09-13T01:15:00.152Z,14.10
2018-09-13T01:17:32.865Z,14.10
2018-09-13T01:20:05.522Z,14.10
2018-09-13T01:22:38.252Z,14.10
2018-09-13T01:25:10.949Z,14.10
2018-09-13T01:27:43.631Z,14.00
2018-09-13T01:30:16.315Z,14.00
2018-09-13T01:32:49.048Z,13.90
2018-09-13T01:35:21.562Z,13.90
2018-09-13T01:37:54.223Z,13.90
2018-09-13T01:40:26.781Z,13.90
2018-09-13T01:42:59.463Z,13.90
2018-09-13T01:45:32.017Z,13.90
2018-09-13T01:48:04.704Z,13.90
2018-09-13T01:50:37.321Z,13.90
2018-09-13T01:53:09.973Z,13.80
2018-09-13T01:55:42.485Z,13.80
2018-09-13T01:58:15.216Z,13.80
2018-09-13T02:00:47.806Z,13.80
2018-09-13T02:03:20.441Z,13.80
2018-09-13T02:05:52.937Z,13.80
2018-09-13T02:08:25.579Z,13.80
2018-09-13T02:10:58.132Z,13.80
2018-09-13T02:13:30.636Z,13.80
2018-09-13T02:16:03.190Z,13.70
2018-09-13T02:18:35.937Z,13.70
2018-09-13T02:21:08.723Z,13.70
2018-09-13T02:23:41.423Z,13.70
2018-09-13T02:26:13.967Z,13.70
2018-09-13T02:28:46.815Z,13.70
2018-09-13T02:31:19.400Z,13.70
2018-09-13T02:33:52.047Z,13.70
2018-09-13T02:36:24.683Z,13.70
2018-09-13T02:38:57.245Z,13.70
2018-09-13T02:41:29.824Z,13.70
2018-09-13T02:44:02.467Z,13.60
2018-09-13T02:46:35.111Z,13.70
2018-09-13T02:49:07.829Z,13.60
2018-09-13T02:51:40.396Z,13.60
2018-09-13T02:54:14.204Z,13.60
2018-09-13T02:56:48.568Z,13.60
2018-09-13T02:59:22.413Z,13.60
2018-09-13T03:01:56.809Z,13.60
2018-09-13T03:04:30.980Z,13.60
2018-09-13T03:07:05.009Z,13.60
2018-09-13T03:09:38.972Z,13.60
2018-09-13T03:12:13.722Z,13.60
2018-09-13T03:14:48.398Z,13.60
2018-09-13T03:17:22.570Z,13.50
2018-09-13T03:19:57.190Z,13.60
2018-09-13T03:22:31.839Z,13.60
2018-09-13T03:25:05.848Z,13.60
2018-09-13T03:27:40.564Z,13.60
2018-09-13T03:30:16.002Z,13.50
2018-09-13T03:32:50.202Z,13.50
2018-09-13T03:35:23.802Z,13.50
2018-09-13T03:37:56.757Z,13.50
2018-09-13T03:40:29.343Z,13.50
2018-09-13T03:43:02.036Z,13.40
2018-09-13T03:45:34.549Z,13.40
2018-09-13T03:48:07.249Z,13.40
2018-09-13T03:50:39.802Z,13.30
2018-09-13T03:53:12.458Z,13.30
2018-09-13T03:55:44.976Z,13.30
2018-09-13T03:58:17.622Z,13.20
2018-09-13T04:00:50.179Z,13.20
2018-09-13T04:03:22.926Z,13.20
2018-09-13T04:05:55.749Z,13.20
2018-09-13T04:08:28.956Z,13.20
2018-09-13T04:11:01.550Z,13.20
2018-09-13T04:13:34.339Z,13.20
2018-09-13T04:16:07.035Z,13.10
2018-09-13T04:18:39.697Z,13.10
2018-09-13T04:21:12.198Z,13.10
2018-09-13T04:23:44.776Z,13.10
2018-09-13T04:26:17.348Z,13.10
2018-09-13T04:28:50.003Z,13.10
2018-09-13T04:31:21.214Z,13.10
2018-09-13T04:33:52.497Z,13.10
2018-09-13T04:36:23.789Z,13.10
2018-09-13T04:38:55.326Z,13.10
2018-09-13T04:41:26.598Z,13.10
2018-09-13T04:43:57.959Z,13.10
2018-09-13T04:46:30.516Z,13.10
2018-09-13T04:49:01.834Z,13.10
2018-09-13T04:51:34.442Z,13.10
2018-09-13T04:54:05.699Z,13.10
2018-09-13T04:56:36.937Z,13.00
2018-09-13T04:59:08.748Z,13.00
2018-09-13T05:01:41.618Z,13.00
2018-09-13T05:04:13.589Z,12.90
2018-09-13T05:06:44.980Z,12.90
2018-09-13T05:09:16.150Z,12.90
2018-09-13T05:11:47.448Z,12.90
2018-09-13T05:14:18.784Z,12.90
2018-09-13T05:16:50.127Z,12.90
2018-09-13T05:19:21.403Z,12.90
2018-09-13T05:21:52.646Z,12.80
2018-09-13T05:24:23.987Z,12.90
2018-09-13T05:26:55.218Z,12.80
2018-09-13T05:29:26.527Z,12.80
2018-09-13T05:31:57.781Z,12.80
2018-09-13T05:34:29.069Z,12.80
2018-09-13T05:37:00.308Z,12.80
2018-09-13T05:39:31.581Z,12.80
2018-09-13T05:42:02.812Z,12.80
2018-09-13T05:44:34.127Z,12.80
2018-09-13T05:47:05.359Z,12.90
2018-09-13T05:49:36.630Z,12.90
2018-09-13T05:52:07.849Z,12.90
2018-09-13T05:54:39.137Z,13.00
2018-09-13T05:57:10.446Z,13.00
2018-09-13T05:59:41.718Z,13.10
2018-09-13T06:02:13.098Z,13.10
2018-09-13T06:04:44.547Z,13.20
2018-09-13T06:07:15.932Z,13.20
2018-09-13T06:09:47.317Z,13.20
2018-09-13T06:12:18.713Z,13.30
2018-09-13T06:14:50.239Z,13.30
2018-09-13T06:17:21.641Z,13.30
2018-09-13T06:19:53.188Z,13.30
2018-09-13T06:22:24.477Z,13.30
2018-09-13T06:24:55.968Z,13.30
2018-09-13T06:27:27.333Z,13.40
2018-09-13T06:29:58.804Z,13.40
2018-09-13T06:32:30.138Z,13.40
2018-09-13T06:35:01.540Z,13.40
2018-09-13T06:37:32.911Z,13.50
2018-09-13T06:40:04.443Z,13.60
2018-09-13T06:42:35.800Z,13.60
2018-09-13T06:45:08.082Z,13.60
2018-09-13T06:47:39.591Z,13.70
2018-09-13T06:50:11.183Z,13.70
2018-09-13T06:52:42.743Z,13.80
2018-09-13T06:55:14.179Z,13.90
2018-09-13T06:57:45.497Z,14.00
2018-09-13T07:00:16.928Z,14.10
2018-09-13T07:02:48.371Z,14.20
2018-09-13T07:05:19.893Z,14.30
2018-09-13T07:07:51.327Z,14.40
2018-09-13T07:10:22.566Z,14.50
2018-09-13T07:12:53.891Z,14.60
2018-09-13T07:15:25.200Z,14.70
2018-09-13T07:17:56.453Z,14.80
2018-09-13T07:20:27.743Z,14.80
2018-09-13T07:22:58.978Z,14.90
2018-09-13T07:25:30.249Z,15.00
2018-09-13T07:28:37.662Z,15.00
2018-09-13T07:31:09.011Z,15.10
2018-09-13T07:33:40.332Z,15.20
2018-09-13T07:36:11.656Z,15.30
2018-09-13T07:38:43.059Z,15.40
2018-09-13T07:41:14.415Z,15.40
2018-09-13T07:43:45.668Z,15.30
2018-09-13T07:46:16.964Z,15.40
2018-09-13T07:48:48.191Z,15.30
2018-09-13T07:51:19.490Z,15.30
2018-09-13T07:53:50.700Z,15.30
2018-09-13T07:56:22.034Z,15.30
2018-09-13T07:58:53.330Z,15.30
2018-09-13T08:01:24.617Z,15.40
2018-09-13T08:03:55.886Z,15.40
2018-09-13T08:06:27.175Z,15.40
2018-09-13T08:08:58.413Z,15.50
2018-09-13T08:11:29.649Z,15.50
2018-09-13T08:14:00.921Z,15.60
2018-09-13T08:16:32.191Z,15.60
2018-09-13T08:19:03.682Z,15.70
2018-09-13T08:21:36.467Z,15.80
2018-09-13T08:24:07.825Z,15.80
2018-09-13T08:26:39.126Z,15.90
2018-09-13T08:29:10.554Z,15.90
2018-09-13T08:31:41.826Z,16.00
2018-09-13T08:34:13.064Z,16.10
2018-09-13T08:36:44.325Z,16.10
2018-09-13T08:39:15.567Z,16.10
2018-09-13T08:41:46.895Z,16.20
2018-09-13T08:44:18.165Z,16.20
2018-09-13T08:46:49.420Z,16.20
2018-09-13T08:49:20.650Z,16.30
2018-09-13T08:51:52.174Z,16.30
2018-09-13T08:54:23.490Z,16.40
2018-09-13T08:56:54.845Z,16.50
2018-09-13T08:59:30.170Z,16.50
2018-09-13T09:02:01.413Z,16.60
2018-09-13T09:04:32.669Z,16.70
2018-09-13T09:07:03.983Z,16.80
2018-09-13T09:09:35.912Z,16.90
2018-09-13T09:12:08.504Z,16.90
2018-09-13T09:14:41.784Z,17.00
2018-09-13T09:17:13.171Z,17.10
2018-09-13T09:19:44.439Z,17.10
2018-09-13T09:22:15.790Z,17.30
2018-09-13T09:24:47.038Z,17.40
2018-09-13T09:27:18.952Z,17.50
2018-09-13T09:29:50.258Z,17.70
2018-09-13T09:32:21.512Z,17.80
2018-09-13T09:34:52.836Z,17.90
2018-09-13T09:37:24.063Z,18.00
2018-09-13T09:39:55.316Z,18.10
2018-09-13T09:42:26.636Z,18.10
2018-09-13T09:44:57.839Z,18.10
2018-09-13T09:47:29.118Z,18.30
2018-09-13T09:50:00.378Z,18.40
2018-09-13T09:52:31.705Z,18.40
2018-09-13T09:55:02.905Z,18.40
2018-09-13T09:57:34.202Z,18.50
2018-09-13T10:00:05.569Z,18.60
2018-09-13T10:02:36.834Z,18.70
2018-09-13T10:05:08.122Z,18.80
2018-09-13T10:07:39.361Z,18.90
2018-09-13T10:10:10.642Z,19.10
2018-09-13T10:12:41.905Z,19.30
2018-09-13T10:15:18.025Z,19.50
2018-09-13T10:17:54.181Z,19.70
2018-09-13T10:20:30.211Z,19.70
2018-09-13T10:23:06.480Z,19.60
2018-09-13T10:25:42.659Z,19.60
2018-09-13T10:28:18.945Z,19.60
2018-09-13T10:30:55.121Z,19.80
2018-09-13T10:33:31.304Z,20.00
2018-09-13T10:36:07.454Z,20.20
2018-09-13T10:38:43.666Z,20.40
2018-09-13T10:41:20.042Z,20.50
2018-09-13T10:43:56.337Z,20.60
2018-09-13T10:46:29.444Z,20.70
2018-09-13T10:49:05.685Z,20.80
2018-09-13T10:51:41.766Z,20.90
2018-09-13T10:54:18.735Z,21.00
2018-09-13T10:56:50.018Z,20.90
2018-09-13T10:59:21.300Z,20.70
2018-09-13T11:01:52.530Z,20.60
2018-09-13T11:04:23.801Z,20.50
2018-09-13T11:06:55.093Z,20.40
2018-09-13T11:09:26.432Z,20.30
2018-09-13T11:11:57.657Z,20.20
2018-09-13T11:14:34.322Z,20.20
2018-09-13T11:17:05.561Z,20.10
2018-09-13T11:19:36.849Z,20.10
2018-09-13T11:22:08.381Z,20.10
2018-09-13T11:24:39.709Z,20.00
2018-09-13T11:27:10.901Z,20.10
2018-09-13T11:29:42.271Z,20.30
2018-09-13T11:32:14.247Z,20.70
2018-09-13T11:34:46.142Z,20.90
2018-09-13T11:37:17.668Z,20.90
2018-09-13T11:39:49.024Z,20.80
2018-09-13T11:42:20.242Z,20.80
2018-09-13T11:44:51.526Z,20.80
2018-09-13T11:47:22.766Z,20.90
2018-09-13T11:49:54.081Z,20.80
2018-09-13T11:52:25.318Z,20.70
2018-09-13T11:54:56.593Z,20.60
2018-09-13T11:57:27.953Z,20.50
2018-09-13T11:59:59.313Z,20.50
2018-09-13T12:02:31.277Z,20.40
2018-09-13T12:05:02.877Z,20.40
2018-09-13T12:07:34.114Z,20.40
2018-09-13T12:10:05.470Z,20.50
2018-09-13T12:12:36.701Z,20.60
2018-09-13T12:15:09.702Z,20.60
2018-09-13T12:17:41.004Z,20.50
2018-09-13T12:20:12.317Z,20.40
2018-09-13T12:22:43.601Z,20.30
2018-09-13T12:25:14.890Z,20.20
2018-09-13T12:27:46.156Z,20.20
2018-09-13T12:30:17.450Z,20.20
2018-09-13T12:32:48.763Z,20.20
2018-09-13T12:35:20.109Z,20.20
2018-09-13T12:37:51.355Z,20.10
2018-09-13T12:40:22.646Z,20.20
2018-09-13T12:42:53.867Z,20.30
2018-09-13T12:45:25.187Z,20.40
2018-09-13T12:47:56.399Z,20.40
2018-09-13T12:50:27.734Z,20.40
2018-09-13T12:52:58.962Z,20.50
2018-09-13T12:55:35.076Z,20.60
2018-09-13T12:58:06.378Z,20.70
2018-09-13T13:00:37.655Z,20.90
2018-09-13T13:03:08.982Z,21.00
2018-09-13T13:05:40.206Z,21.20
2018-09-13T13:08:11.443Z,21.40
2018-09-13T13:10:42.725Z,21.50
2018-09-13T13:13:14.224Z,21.50
2018-09-13T13:15:45.504Z,21.30
2018-09-13T13:18:16.782Z,21.20
2018-09-13T13:20:48.077Z,21.10
2018-09-13T13:23:19.349Z,21.10
2018-09-13T13:25:50.661Z,21.10
2018-09-13T13:28:21.955Z,21.10
2018-09-13T13:30:53.235Z,21.10
2018-09-13T13:33:24.546Z,21.30
2018-09-13T13:35:55.843Z,21.50
2018-09-13T13:38:27.293Z,21.70
2018-09-13T13:40:58.638Z,22.10
2018-09-13T13:43:29.900Z,22.50
2018-09-13T13:46:01.162Z,22.90
2018-09-13T13:48:32.404Z,23.30
2018-09-13T13:51:03.793Z,23.60
2018-09-13T13:53:35.038Z,23.70
2018-09-13T13:56:06.317Z,23.40
2018-09-13T13:58:37.581Z,23.20
2018-09-13T14:01:08.853Z,22.90
2018-09-13T14:03:40.099Z,22.60
2018-09-13T14:06:11.365Z,22.20
2018-09-13T14:08:43.250Z,21.90
2018-09-13T14:11:14.509Z,21.70
2018-09-13T14:13:45.794Z,21.50
2018-09-13T14:16:17.057Z,21.40
2018-09-13T14:18:48.513Z,21.20
2018-09-13T14:21:19.778Z,21.10
2018-09-13T14:23:51.022Z,20.90
2018-09-13T14:26:22.257Z,20.90
2018-09-13T14:28:53.579Z,20.90
2018-09-13T14:31:24.961Z,20.90
2018-09-13T14:33:56.240Z,20.90
2018-09-13T14:36:27.492Z,21.20
2018-09-13T14:38:58.717Z,21.70
2018-09-13T14:41:29.987Z,22.40
2018-09-13T14:44:01.238Z,22.90
2018-09-13T14:46:32.566Z,23.40
2018-09-13T14:49:03.810Z,23.80
2018-09-13T14:51:35.199Z,24.20
2018-09-13T14:54:06.492Z,24.70
2018-09-13T14:56:37.833Z,25.20
2018-09-13T14:59:09.147Z,25.70
2018-09-13T15:01:40.454Z,26.10
2018-09-13T15:04:11.680Z,26.30
2018-09-13T15:06:43.067Z,26.50
2018-09-13T15:09:14.409Z,26.50
2018-09-13T15:11:45.693Z,26.70
2018-09-13T15:14:16.859Z,26.80
2018-09-13T15:16:48.141Z,26.90
2018-09-13T15:19:19.374Z,26.90
2018-09-13T15:21:50.631Z,26.90
2018-09-13T15:24:21.932Z,27.00
2018-09-13T15:26:53.206Z,27.00
2018-09-13T15:29:24.508Z,27.20
2018-09-13T15:31:56.045Z,27.20
2018-09-13T15:34:27.279Z,27.30
2018-09-13T15:36:58.652Z,27.30
2018-09-13T15:39:29.861Z,27.40
2018-09-13T15:42:01.197Z,27.50
2018-09-13T15:44:32.522Z,27.70
2018-09-13T15:47:03.900Z,27.90
2018-09-13T15:49:35.128Z,28.20
2018-09-13T15:52:06.502Z,28.50
2018-09-13T15:54:37.768Z,28.70
2018-09-13T15:57:09.040Z,28.50
2018-09-13T15:59:40.284Z,28.10
2018-09-13T16:02:11.653Z,28.30
2018-09-13T16:04:42.904Z,28.30
2018-09-13T16:07:14.470Z,28.40
2018-09-13T16:09:45.741Z,28.10
2018-09-13T16:12:17.081Z,28.20
2018-09-13T16:14:48.326Z,27.90
2018-09-13T16:17:23.383Z,27.20
2018-09-13T16:19:54.635Z,26.40
2018-09-13T16:22:25.957Z,25.70
2018-09-13T16:24:57.202Z,25.10
2018-09-13T16:27:30.960Z,24.90
2018-09-13T16:30:02.275Z,25.20
2018-09-13T16:32:33.568Z,25.90
2018-09-13T16:35:05.049Z,26.10
2018-09-13T16:37:41.270Z,25.60
2018-09-13T16:40:18.010Z,25.00
2018-09-13T16:43:56.207Z,24.30
2018-09-13T16:46:33.092Z,23.80
2018-09-13T16:49:04.477Z,23.10
2018-09-13T16:51:36.478Z,22.80
2018-09-13T16:54:07.806Z,22.40
2018-09-13T16:56:39.007Z,22.20
2018-09-13T16:59:10.268Z,21.90
2018-09-13T17:01:41.541Z,21.70
2018-09-13T17:04:12.837Z,21.50
2018-09-13T17:06:44.061Z,21.40
2018-09-13T17:09:15.330Z,21.20
2018-09-13T17:11:46.559Z,21.00
2018-09-13T17:14:17.833Z,20.80
2018-09-13T17:16:49.114Z,20.70
2018-09-13T17:19:20.422Z,20.50
2018-09-13T17:21:51.969Z,20.30
2018-09-13T17:24:23.250Z,20.10
2018-09-13T17:26:54.597Z,20.10
2018-09-13T17:29:25.999Z,19.90
2018-09-13T17:31:57.301Z,19.70
2018-09-13T17:34:28.603Z,19.60
2018-09-13T17:36:59.873Z,19.50
2018-09-13T17:39:31.227Z,19.40
2018-09-13T17:42:02.546Z,19.20
2018-09-13T17:44:33.818Z,19.10
2018-09-13T17:47:05.086Z,19.00
2018-09-13T17:49:36.362Z,18.90
2018-09-13T17:52:07.768Z,18.80
2018-09-13T17:54:39.049Z,18.70
2018-09-13T17:57:10.353Z,18.70
2018-09-13T17:59:41.593Z,18.60
2018-09-13T18:02:12.933Z,18.50
2018-09-13T18:04:44.208Z,18.40
2018-09-13T18:07:15.653Z,18.30
2018-09-13T18:09:46.960Z,18.30
2018-09-13T18:12:18.202Z,18.20
2018-09-13T18:14:49.546Z,18.10
2018-09-13T18:17:20.805Z,18.00
2018-09-13T18:19:52.133Z,17.90
2018-09-13T18:22:23.410Z,17.90
2018-09-13T18:24:54.681Z,17.70
2018-09-13T18:27:25.916Z,17.70
2018-09-13T18:29:57.210Z,17.60
2018-09-13T18:32:28.480Z,17.50
2018-09-13T18:34:59.750Z,17.50
2018-09-13T18:37:31.092Z,17.50
2018-09-13T18:40:02.411Z,17.40
2018-09-13T18:42:33.690Z,17.40
2018-09-13T18:45:05.041Z,17.40
2018-09-13T18:47:36.364Z,17.40
2018-09-13T18:50:07.848Z,17.40
2018-09-13T18:52:39.195Z,17.40
2018-09-13T18:55:10.543Z,17.30
2018-09-13T18:57:42.278Z,17.30
2018-09-13T19:00:13.642Z,17.30
2018-09-13T19:02:44.864Z,17.30
2018-09-13T19:05:16.219Z,17.30
2018-09-13T19:07:47.499Z,17.20
2018-09-13T19:10:18.803Z,17.20
2018-09-13T19:13:01.961Z,17.30
2018-09-13T19:15:45.079Z,17.20
2018-09-13T19:18:24.956Z,17.20
2018-09-13T19:21:02.669Z,17.10
2018-09-13T19:23:41.549Z,17.10
2018-09-13T19:26:28.089Z,17.10
2018-09-13T19:29:06.244Z,17.10
2018-09-13T19:31:45.511Z,17.00
2018-09-13T19:34:21.214Z,16.90
2018-09-13T19:36:53.886Z,16.90
2018-09-13T19:39:26.477Z,16.90
2018-09-13T19:41:59.187Z,16.80
2018-09-13T19:44:32.242Z,16.80
2018-09-13T19:47:04.828Z,16.80
2018-09-13T19:49:37.384Z,16.70
2018-09-13T19:52:10.148Z,16.70
2018-09-13T19:54:42.674Z,16.60
2018-09-13T19:57:15.642Z,16.50
2018-09-13T19:59:48.107Z,16.50
2018-09-13T20:02:20.705Z,16.50
2018-09-13T20:04:53.421Z,16.40
2018-09-13T20:07:29.482Z,16.30
2018-09-13T20:10:05.330Z,16.20
2018-09-13T20:12:39.047Z,16.20
2018-09-13T20:15:13.614Z,16.10
2018-09-13T20:17:47.469Z,16.00
2018-09-13T20:20:21.185Z,15.90
2018-09-13T20:22:54.719Z,15.80
2018-09-13T20:25:28.993Z,15.70
2018-09-13T20:28:04.216Z,15.70
2018-09-13T20:30:36.986Z,15.60
2018-09-13T20:33:09.721Z,15.60
2018-09-13T20:35:43.186Z,15.60
2018-09-13T20:38:15.848Z,15.60
2018-09-13T20:40:48.361Z,15.50
2018-09-13T20:43:21.178Z,15.50
2018-09-13T20:45:53.629Z,15.40
2018-09-13T20:48:26.206Z,15.40
2018-09-13T20:50:58.955Z,15.30
2018-09-13T20:53:31.903Z,15.20
2018-09-13T20:56:04.402Z,15.20
2018-09-13T20:58:36.859Z,15.10
2018-09-13T21:01:09.899Z,15.10
2018-09-13T21:03:42.506Z,15.00
2018-09-13T21:06:15.210Z,15.00
2018-09-13T21:08:47.717Z,14.90
2018-09-13T21:11:20.367Z,14.80
2018-09-13T21:13:52.985Z,14.80
2018-09-13T21:16:25.504Z,14.70
2018-09-13T21:18:59.239Z,14.70
2018-09-13T21:21:31.831Z,14.60
2018-09-13T21:24:04.407Z,14.50
2018-09-13T21:26:36.983Z,14.40
2018-09-13T21:29:09.608Z,14.40
2018-09-13T21:31:42.239Z,14.40
2018-09-13T21:34:14.773Z,14.30
2018-09-13T21:36:47.371Z,14.30
2018-09-13T21:39:19.893Z,14.20
2018-09-13T21:41:52.499Z,14.20
2018-09-13T21:44:25.060Z,14.10
2018-09-13T21:46:57.676Z,14.10
2018-09-13T21:49:31.713Z,14.00
2018-09-13T21:52:05.904Z,13.90
2018-09-13T21:54:38.786Z,13.80
2018-09-13T21:57:11.578Z,13.80
2018-09-13T21:59:44.081Z,13.70
2018-09-13T22:02:16.689Z,13.70
2018-09-13T22:04:49.230Z,13.60
2018-09-13T22:07:21.781Z,13.60
2018-09-13T22:09:56.714Z,13.50
2018-09-13T22:12:29.372Z,13.60
2018-09-13T22:15:05.009Z,13.50
2018-09-13T22:18:24.639Z,13.50
2018-09-13T22:21:44.674Z,13.40
2018-09-13T22:25:03.556Z,13.40
2018-09-13T22:27:37.332Z,13.30
2018-09-13T22:30:10.164Z,13.30
2018-09-13T22:32:42.814Z,13.30
2018-09-13T22:35:15.484Z,13.30
2018-09-13T22:37:48.036Z,13.20
2018-09-13T22:40:20.507Z,13.20
2018-09-13T22:42:53.207Z,13.20
2018-09-13T22:45:25.823Z,13.10
2018-09-13T22:47:58.377Z,13.10
2018-09-13T22:50:31.028Z,13.10
2018-09-13T22:53:03.617Z,13.10
2018-09-13T22:55:36.095Z,13.10
2018-09-13T22:58:08.754Z,13.10
2018-09-13T23:00:41.183Z,13.00
2018-09-13T23:03:13.973Z,13.00
2018-09-13T23:05:46.475Z,13.00
2018-09-13T23:08:19.019Z,12.90
2018-09-13T23:10:52.772Z,12.90
2018-09-13T23:13:25.667Z,12.80
2018-09-13T23:15:58.185Z,12.80
2018-09-13T23:18:30.821Z,12.80
2018-09-13T23:21:03.369Z,12.70
2018-09-13T23:23:35.818Z,12.70
2018-09-13T23:26:08.289Z,12.70
2018-09-13T23:28:40.963Z,12.60
2018-09-13T23:31:13.509Z,12.60
2018-09-13T23:33:46.137Z,12.60
2018-09-13T23:36:18.672Z,12.50
2018-09-13T23:38:51.290Z,12.50
2018-09-13T23:41:23.747Z,12.40
2018-09-13T23:43:56.353Z,12.40
2018-09-13T23:46:28.976Z,12.40
2018-09-13T23:49:01.607Z,12.40
2018-09-13T23:51:34.440Z,12.30
2018-09-13T23:54:07.003Z,12.30
2018-09-13T23:56:39.671Z,12.30
2018-09-13T23:59:12.328Z,12.20
